^^
Datos históricos de la estación: Murcia-Puente Tocinos
Diario Informe para Mayo 17, 2019 Unidades:  Ingés    Métrico   Ambas
Diario Semanal Mensual Anual
  Máxima: Mínima: Promedio:
Temperatura: 88.5 °F 74.1 °F 81.1 °F
Punto de rocio: 67.3 °F 57.2 °F 63.5 °F
Humedad: 75% 35.2% 57%
Velocidad viento: 13.5mph 0mph 5.3mph
Racha viento: 23.5mph - -
Viento- - ESE
Presión: 29.9 in 29.8 in -
Precipitación: 0 in    
 
 
Tabla de datos para Mayo 17, 2019
Hora Temperatura Punto de rocio Presión Viento Velocidad viento Racha viento Humedad Intensidad lluvia(por hora) Nubes
00:04 77.5 °F 66.9 °F 29.9 in NE 4.3 mph 7 mph 70% 0 in
00:09 77.5 °F 66.9 °F 29.9 in NE 3.9 mph 5 mph 69.9% 0 in
00:14 77.5 °F 66.7 °F 29.9 in NE 2.9 mph 5.2 mph 69.2% 0 in
00:19 77.5 °F 66.6 °F 29.9 in NE 2.9 mph 5.2 mph 69.1% 0 in
00:24 77.5 °F 66.9 °F 29.9 in NE 2.9 mph 5 mph 70% 0 in
00:29 77.4 °F 66.9 °F 29.9 in NE 2.9 mph 5 mph 70% 0 in
00:34 77.4 °F 66.7 °F 29.9 in NE 3.1 mph 5 mph 70% 0 in
00:39 77.4 °F 66.7 °F 29.9 in NE 3.1 mph 5 mph 70% 0 in
00:44 77.2 °F 66.7 °F 29.9 in NE 3.1 mph 5 mph 70% 0 in
00:49 77.2 °F 66.7 °F 29.9 in NNE 2.7 mph 5 mph 70.5% 0 in
00:54 77.2 °F 66.9 °F 29.9 in NE 2 mph 5.4 mph 71% 0 in
00:59 77 °F 66.9 °F 29.9 in NE 2.3 mph 6 mph 71% 0 in
01:04 77 °F 66.9 °F 29.9 in NNE 2.9 mph 6 mph 71% 0 in
01:09 77 °F 66.9 °F 29.9 in NE 2.7 mph 4.6 mph 71% 0 in
01:14 77 °F 66.9 °F 29.9 in NE 2.4 mph 5.2 mph 71% 0 in
01:19 77 °F 66.9 °F 29.9 in NE 2.6 mph 5.9 mph 71% 0 in
01:24 77 °F 67.3 °F 29.9 in NE 3.1 mph 6 mph 71.9% 0 in
01:29 77.2 °F 67.1 °F 29.9 in ENE 3.1 mph 5 mph 71.1% 0 in
01:34 77.2 °F 66.9 °F 29.9 in NE 3.1 mph 5.2 mph 71% 0 in
01:39 77.2 °F 66.9 °F 29.9 in NE 3 mph 5 mph 71% 0 in
01:44 77 °F 67.3 °F 29.9 in NNE 2.9 mph 5.8 mph 71.9% 0 in
01:49 77 °F 67.3 °F 29.9 in NE 2.9 mph 6 mph 72% 0 in
01:54 77 °F 67.3 °F 29.9 in ENE 3.1 mph 5 mph 72% 0 in
01:59 76.8 °F 67.1 °F 29.9 in NE 2.7 mph 5 mph 72% 0 in
02:04 76.8 °F 66.9 °F 29.9 in ENE 2 mph 5 mph 71.5% 0 in
02:09 76.8 °F 66.9 °F 29.9 in Este 1.9 mph 3.5 mph 71.5% 0 in
02:14 76.8 °F 67.1 °F 29.9 in Este 1.8 mph 3 mph 72% 0 in
02:19 76.8 °F 67.1 °F 29.9 in Este 1.2 mph   72% 0 in
02:24 76.6 °F 66.9 °F 29.9 in Calm   3.6 mph 72% 0 in
02:29 76.6 °F 66.9 °F 29.9 in NNO 0.4 mph 4 mph 72% 0 in
02:34 76.5 °F 66.7 °F 29.9 in NNO 1.4 mph 3.6 mph 72% 0 in
02:39 76.5 °F 67.1 °F 29.9 in NNO 1.5 mph 4 mph 72.8% 0 in
02:44 76.3 °F 66.9 °F 29.9 in NNO 1.8 mph 3.5 mph 73% 0 in
02:49 76.3 °F 66.9 °F 29.9 in NO 1.7 mph 4.6 mph 73% 0 in
02:54 76.1 °F 66.7 °F 29.9 in NO 1.4 mph 5 mph 73% 0 in
02:59 75.9 °F 66.6 °F 29.9 in NO 1.4 mph 3 mph 73% 0 in
03:04 75.9 °F 66.6 °F 29.9 in NO 1.4 mph 3.5 mph 73% 0 in
03:09 75.9 °F 66.6 °F 29.9 in NO 1 mph 3.5 mph 73% 0 in
03:14 75.7 °F 66.6 °F 29.9 in Calm   3 mph 73% 0 in
03:19 75.7 °F 66.6 °F 29.9 in Calm   3.1 mph 73% 0 in
03:24 75.7 °F 66.6 °F 29.9 in Calm   3.5 mph 73% 0 in
03:29 75.7 °F 66.6 °F 29.9 in Calm   3 mph 73% 0 in
03:34 75.6 °F 66.4 °F 29.9 in Calm     73% 0 in
03:39 75.6 °F 66.4 °F 29.9 in Calm     73% 0 in
03:44 75.6 °F 66.4 °F 29.9 in Calm     73% 0 in
03:49 75.6 °F 66.4 °F 29.9 in Calm     73% 0 in
03:54 75.6 °F 66.4 °F 29.9 in Calm   1.4 mph 73% 0 in
03:59 75.6 °F 66.4 °F 29.9 in Calm   1 mph 73% 0 in
04:04 75.6 °F 66.4 °F 29.9 in Calm   4 mph 73% 0 in
04:09 75.6 °F 66.4 °F 29.9 in NNO 0.6 mph 5 mph 73% 0 in
04:14 75.6 °F 66.4 °F 29.9 in NNO 1.8 mph 5 mph 73% 0 in
04:19 75.4 °F 66.2 °F 29.9 in NO 1.9 mph 4 mph 73% 0 in
04:24 75.4 °F 66.4 °F 29.9 in NO 2 mph 5 mph 73.7% 0 in
04:29 75 °F 66.2 °F 29.9 in NNE 1.9 mph 5 mph 74% 0 in
04:34 74.8 °F 66 °F 29.9 in NO 1.8 mph 3.6 mph 74% 0 in
04:39 74.8 °F 66 °F 29.9 in NO 1.7 mph 4 mph 74% 0 in
04:44 74.8 °F 66 °F 29.9 in NO 1.4 mph 2.9 mph 74% 0 in
04:49 74.8 °F 66 °F 29.9 in NO 1 mph 3 mph 74% 0 in
04:54 74.8 °F 66 °F 29.9 in Calm   3.6 mph 74% 0 in
04:59 74.8 °F 66 °F 29.9 in SSE 0.6 mph 5.8 mph 74% 0 in
05:04 74.8 °F 66.4 °F 29.9 in SSE 1.8 mph 6 mph 74.8% 0 in
05:09 74.8 °F 66.4 °F 29.9 in Sur 2.2 mph 5 mph 75% 0 in
05:14 74.8 °F 66.4 °F 29.9 in SSE 2.9 mph 5.8 mph 75% 0 in
05:19 74.8 °F 66.4 °F 29.9 in Sur 2.7 mph 6 mph 75% 0 in
05:24 74.8 °F 66.4 °F 29.9 in SO 2.4 mph 5 mph 75% 0 in
05:29 74.8 °F 66.4 °F 29.9 in Oeste 2.4 mph 5 mph 74.8% 0 in
05:34 74.8 °F 66 °F 29.9 in OSO 2.4 mph 5 mph 74% 0 in
05:39 74.8 °F 66.2 °F 29.9 in OSO 2.5 mph 6.2 mph 74.5% 0 in
05:44 74.7 °F 66 °F 29.9 in OSO 2.9 mph 6 mph 74.3% 0 in
05:49 74.7 °F 65.8 °F 29.9 in OSO 2.7 mph 5 mph 74.1% 0 in
05:54 74.8 °F 66 °F 29.9 in OSO 2.4 mph 5 mph 74% 0 in
05:59 74.8 °F 66 °F 29.9 in OSO 2.1 mph 3 mph 74% 0 in
06:04 74.8 °F 66 °F 29.9 in OSO 1.4 mph 2.4 mph 74% 0 in
06:09 74.7 °F 65.8 °F 29.9 in ONO 1 mph 2.3 mph 74% 0 in
06:14 74.7 °F 65.8 °F 29.9 in Calm   3.6 mph 74% 0 in
06:19 74.7 °F 65.8 °F 29.9 in ESE 0.6 mph 4.7 mph 74.3% 0 in
06:24 74.5 °F 66 °F 29.9 in ESE 2 mph 5 mph 75% 0 in
06:29 74.3 °F 65.8 °F 29.9 in SSE 2.1 mph 5 mph 75% 0 in
06:34 74.1 °F 65.7 °F 29.9 in Sur 2.4 mph 5.2 mph 75% 0 in
06:39 74.1 °F 65.7 °F 29.9 in Sur 2.5 mph 5 mph 75% 0 in
06:44 74.1 °F 65.7 °F 29.9 in SSE 2.9 mph 5.8 mph 75% 0 in
06:49 74.1 °F 65.7 °F 29.9 in Sur 3.1 mph 6 mph 75% 0 in
06:54 74.1 °F 65.7 °F 29.9 in Sur 3.6 mph 5.2 mph 75% 0 in
06:59 74.1 °F 65.7 °F 29.9 in SSO 3.4 mph 5.2 mph 75% 0 in
07:04 74.1 °F 65.8 °F 29.9 in SSO 2.9 mph 6.9 mph 75% 0 in
07:09 74.3 °F 65.8 °F 29.9 in SSO 3.1 mph 7 mph 75% 0 in
07:14 74.3 °F 65.8 °F 29.9 in SO 3.6 mph 6 mph 75% 0 in
07:19 74.3 °F 66 °F 29.9 in OSO 3.4 mph 5.2 mph 75% 0 in
07:24 74.3 °F 65.7 °F 29.9 in OSO 2.9 mph 5.9 mph 74.4% 0 in
07:29 74.1 °F 65.7 °F 29.9 in SO 3.1 mph 6.9 mph 75% 0 in
07:34 74.1 °F 65.7 °F 29.9 in SO 3.6 mph 7 mph 75% 0 in
07:39 74.1 °F 65.7 °F 29.9 in OSO 3.6 mph 5.2 mph 74.7% 0 in
07:44 74.3 °F 65.5 °F 29.9 in OSO 3.6 mph 5 mph 74% 0 in
07:49 74.5 °F 65.5 °F 29.9 in OSO 3.4 mph 5.2 mph 73.8% 0 in
07:54 74.5 °F 65.3 °F 29.9 in OSO 2.9 mph 5.8 mph 73% 0 in
07:59 74.5 °F 65.3 °F 29.9 in OSO 3.1 mph 6 mph 73% 0 in
08:04 74.5 °F 65.3 °F 29.9 in SO 3.6 mph 6 mph 73% 0 in
08:09 74.7 °F 65.3 °F 29.9 in SO 3.4 mph 5.9 mph 72.6% 0 in
08:14 74.7 °F 65.1 °F 29.9 in SO 2.9 mph 6 mph 72% 0 in
08:19 74.8 °F 64.9 °F 29.9 in SSO 2.9 mph 5.4 mph 71.2% 0 in
08:24 75 °F 64.9 °F 29.9 in OSO 2.9 mph 6 mph 70.6% 0 in
08:29 75.4 °F 64.9 °F 29.9 in SO 2.9 mph 6 mph 70.3% 0 in
08:34 75.4 °F 64.9 °F 29.9 in Oeste 3.1 mph 5 mph 70% 0 in
08:39 75.6 °F 64.8 °F 29.9 in ONO 3.1 mph 5.8 mph 69.2% 0 in
08:44 75.7 °F 64.8 °F 29.9 in Oeste 3.1 mph 6 mph 68.8% 0 in
08:49 75.7 °F 64.8 °F 29.9 in ONO 3 mph 5 mph 69% 0 in
08:54 75.9 °F 64.8 °F 29.9 in OSO 2.9 mph 5.2 mph 68.5% 0 in
08:59 76.1 °F 64.8 °F 29.9 in Oeste 2.7 mph 5.2 mph 68% 0 in
09:04 76.5 °F 64.9 °F 29.9 in SO 2.4 mph 5 mph 67.8% 0 in
09:09 76.6 °F 64.9 °F 29.9 in Sur 2.4 mph 5 mph 67% 0 in
09:14 77 °F 65.1 °F 29.9 in Sur 2.4 mph 5.4 mph 66.9% 0 in
09:19 77.4 °F 64.9 °F 29.9 in SO 2.4 mph 6 mph 65.6% 0 in
09:24 77.5 °F 64.8 °F 29.9 in OSO 2.4 mph 6 mph 64.6% 0 in
09:29 77.9 °F 64.4 °F 29.9 in Oeste 2.4 mph 6 mph 63.4% 0 in
09:34 78.3 °F 64.6 °F 29.9 in ONO 2.4 mph 6 mph 63% 0 in
09:39 78.4 °F 64.8 °F 29.9 in Oeste 2.5 mph 5 mph 63% 0 in
09:44 78.6 °F 64.4 °F 29.9 in OSO 2.9 mph 7.4 mph 61.7% 0 in
09:49 78.6 °F 64 °F 29.9 in SO 3 mph 7 mph 60.8% 0 in
09:54 79 °F 63.9 °F 29.9 in SSE 3.1 mph 6.2 mph 59.8% 0 in
09:59 79.3 °F 64.8 °F 29.9 in SSO 3.1 mph 6.9 mph 61% 0 in
10:04 79.3 °F 64.8 °F 29.9 in SSE 3.1 mph 7 mph 61% 0 in
10:09 79.5 °F 64.9 °F 29.9 in SSE 3 mph 7 mph 61% 0 in
10:14 79.9 °F 64.9 °F 29.9 in SSE 2.9 mph 5 mph 60.3% 0 in
10:19 80.2 °F 64.4 °F 29.9 in SSE 2.9 mph 6.2 mph 58.6% 0 in
10:24 80.8 °F 64 °F 29.9 in SE 2.9 mph 6.9 mph 57% 0 in
10:29 80.8 °F 63.5 °F 29.9 in ENE 3.3 mph 7 mph 55.8% 0 in
10:34 81 °F 63.3 °F 29.9 in SO 4.3 mph 7 mph 55% 0 in
10:39 81.1 °F 62.8 °F 29.9 in SO 3.7 mph 6.4 mph 53.8% 0 in
10:44 82 °F 61.9 °F 29.9 in Este 2 mph 7 mph 50.8% 0 in
10:49 82.2 °F 61.3 °F 29.9 in Este 2.7 mph 13 mph 49.2% 0 in
10:54 82.4 °F 61.7 °F 29.9 in NE 4.3 mph 13 mph 49.6% 0 in
10:59 82.8 °F 61.9 °F 29.9 in Este 4.1 mph 10.4 mph 49.3% 0 in
11:04 82.9 °F 61.5 °F 29.9 in ESE 3.6 mph 10.4 mph 48.4% 0 in
11:09 82.8 °F 61.2 °F 29.9 in Este 4.2 mph 9 mph 47.9% 0 in
11:14 83.1 °F 60.6 °F 29.9 in NNE 5.4 mph 9 mph 46.7% 0 in
11:19 83.5 °F 60.4 °F 29.9 in NE 4.8 mph 8 mph 46% 0 in
11:24 84 °F 60.6 °F 29.9 in ESE 3.6 mph 7.4 mph 45.3% 0 in
11:29 84.7 °F 60.6 °F 29.9 in NE 3.7 mph 9.7 mph 44.5% 0 in
11:34 84.7 °F 60.3 °F 29.9 in NE 4 mph 11.2 mph 43.9% 0 in
11:39 84.6 °F 59.9 °F 29.9 in NNE 4.5 mph 12 mph 43.7% 0 in
11:44 84.4 °F 59.5 °F 29.9 in NE 5.9 mph 10 mph 43.2% 0 in
11:49 85.1 °F 58.6 °F 29.9 in NE 5 mph 8.7 mph 41% 0 in
11:54 85.5 °F 58.6 °F 29.9 in ENE 3.1 mph 9.2 mph 40.3% 0 in
11:59 85.8 °F 58.1 °F 29.9 in NE 3.6 mph 13.7 mph 39.3% 0 in
12:04 85.6 °F 58.3 °F 29.9 in NE 4.7 mph 15.2 mph 39.6% 0 in
12:09 85.8 °F 58.8 °F 29.9 in NE 5.2 mph 15 mph 40.2% 0 in
12:14 86.2 °F 58.5 °F 29.9 in NE 6.4 mph 13.8 mph 39.3% 0 in
12:19 86.4 °F 59.2 °F 29.9 in ENE 6.6 mph 14 mph 40% 0 in
12:24 86.5 °F 59.7 °F 29.9 in NE 6.9 mph 12 mph 40.5% 0 in
12:29 86.4 °F 61 °F 29.9 in NE 7.3 mph 16.1 mph 42.5% 0 in
12:34 86.5 °F 60.1 °F 29.9 in NE 8.1 mph 16.1 mph 41.1% 0 in
12:39 86.4 °F 58.3 °F 29.9 in NNE 8.2 mph 16 mph 38.8% 0 in
12:44 86.5 °F 57.4 °F 29.9 in NE 8.5 mph 17.3 mph 37.3% 0 in
12:49 86.5 °F 57.4 °F 29.9 in NE 8.9 mph 17 mph 37.1% 0 in
12:54 86.7 °F 58.3 °F 29.9 in NE 10 mph 15 mph 38.1% 0 in
12:59 86.7 °F 59.9 °F 29.9 in NE 9.5 mph 16.1 mph 40.5% 0 in
13:04 86.7 °F 60.3 °F 29.9 in NE 8.5 mph 16 mph 41% 0 in
13:09 86.7 °F 61 °F 29.9 in NE 8.5 mph 16.1 mph 42% 0 in
13:14 86.7 °F 61.3 °F 29.9 in NE 8.7 mph 18.5 mph 42.6% 0 in
13:19 87.1 °F 62.2 °F 29.9 in ENE 8.7 mph 19 mph 43.6% 0 in
13:24 87.1 °F 61.9 °F 29.9 in NE 8.7 mph 17.5 mph 42.9% 0 in
13:29 86.9 °F 61.7 °F 29.9 in NE 9.5 mph 21.9 mph 42.9% 0 in
13:34 86.9 °F 61.3 °F 29.9 in NE 11.4 mph 22 mph 42.4% 0 in
13:39 87.3 °F 61.7 °F 29.9 in NE 11 mph 18.5 mph 42.6% 0 in
13:44 87.6 °F 61.7 °F 29.9 in NE 10 mph 19 mph 42% 0 in
13:49 87.8 °F 61.9 °F 29.9 in NE 9.8 mph 20.8 mph 42% 0 in
13:54 88 °F 61.3 °F 29.9 in ENE 9.2 mph 21 mph 41.1% 0 in
13:59 88 °F 61.2 °F 29.9 in NE 9.8 mph 21.3 mph 41% 0 in
14:04 87.8 °F 61.3 °F 29.9 in NE 10.7 mph 21 mph 41.3% 0 in
14:09 88 °F 61 °F 29.9 in NE 10.5 mph 23.5 mph 40.6% 0 in
14:14 88 °F 60.8 °F 29.9 in NE 10 mph 23 mph 40.3% 0 in
14:19 87.8 °F 60.8 °F 29.9 in NE 10.6 mph 21 mph 40.6% 0 in
14:24 87.4 °F 60.8 °F 29.9 in NE 11.8 mph 17.3 mph 40.9% 0 in
14:29 87.6 °F 61 °F 29.9 in NE 11.3 mph 20.8 mph 41.1% 0 in
14:34 88 °F 61.2 °F 29.9 in NE 10.2 mph 21 mph 40.7% 0 in
14:39 87.6 °F 60.8 °F 29.9 in NE 10.6 mph 21 mph 40.9% 0 in
14:44 87.6 °F 60.3 °F 29.9 in NE 11.4 mph 18 mph 40% 0 in
14:49 88 °F 60.1 °F 29.9 in NE 10.9 mph 16.1 mph 39.2% 0 in
14:54 87.8 °F 60.4 °F 29.9 in NE 9.7 mph 18.4 mph 40% 0 in
14:59 87.6 °F 60.6 °F 29.9 in NE 9.9 mph 18 mph 40.3% 0 in
15:04 88.2 °F 59.9 °F 29.9 in NE 10.2 mph 17 mph 38.9% 0 in
15:09 88 °F 60.3 °F 29.9 in NNE 10.1 mph 20.8 mph 39.5% 0 in
15:14 87.6 °F 60.1 °F 29.9 in NE 10 mph 21 mph 39.6% 0 in
15:19 87.8 °F 59.7 °F 29.9 in NE 10.4 mph 18 mph 39% 0 in
15:24 88.2 °F 59.9 °F 29.9 in ENE 11.4 mph 16.1 mph 38.6% 0 in
15:29 88.3 °F 59.7 °F 29.9 in NE 10.9 mph 19.6 mph 38.3% 0 in
15:34 87.8 °F 60.3 °F 29.9 in NE 9.7 mph 20 mph 39.6% 0 in
15:39 88.2 °F 58.3 °F 29.9 in NE 9.8 mph 18.5 mph 36.5% 0 in
15:44 88.2 °F 59.5 °F 29.9 in ENE 10.2 mph 19.7 mph 38.2% 0 in
15:49 88.5 °F 60.8 °F 29.9 in NE 9.9 mph 20 mph 39.6% 0 in
15:54 88.3 °F 60.8 °F 29.9 in NE 9.2 mph 23 mph 39.7% 0 in
15:59 88 °F 60.1 °F 29.9 in NE 10.4 mph 23 mph 39.1% 0 in
16:04 87.6 °F 59.9 °F 29.9 in NE 12.5 mph 23.5 mph 39.4% 0 in
16:09 87.6 °F 60.6 °F 29.8 in NE 12.8 mph 23 mph 40.4% 0 in
16:14 87.6 °F 61.5 °F 29.8 in NE 13.5 mph 21.9 mph 41.6% 0 in
16:19 88.2 °F 61.5 °F 29.8 in NE 12.9 mph 22 mph 41.2% 0 in
16:24 88.2 °F 61.3 °F 29.8 in NE 11.4 mph 21 mph 40.8% 0 in
16:29 87.6 °F 61.9 °F 29.8 in NE 11.5 mph 17.8 mph 42% 0 in
16:34 88.2 °F 61.5 °F 29.8 in NE 11.8 mph 19.6 mph 41.1% 0 in
16:39 88.3 °F 60.6 °F 29.8 in NE 11.3 mph 20 mph 39.6% 0 in
16:44 88.3 °F 59.9 °F 29.8 in ENE 10.2 mph 17 mph 38.5% 0 in
16:49 88.5 °F 59.7 °F 29.8 in NE 9.9 mph 18.1 mph 38% 0 in
16:54 88.2 °F 59.4 °F 29.8 in NE 9.2 mph 18.4 mph 38% 0 in
16:59 88.2 °F 59.5 °F 29.8 in NE 9.7 mph 18.4 mph 38.2% 0 in
17:04 88.3 °F 59.4 °F 29.8 in NE 10.7 mph 19.6 mph 37.8% 0 in
17:09 88.3 °F 59.2 °F 29.8 in NE 10.5 mph 20 mph 37.7% 0 in
17:14 88.3 °F 59.2 °F 29.8 in ENE 10 mph 17 mph 37.6% 0 in
17:19 88.3 °F 59.5 °F 29.8 in NE 10 mph 19 mph 38% 0 in
17:24 88.3 °F 59.4 °F 29.8 in ENE 10 mph 19 mph 37.9% 0 in
17:29 88.3 °F 59.7 °F 29.8 in NE 9.8 mph 17 mph 38.2% 0 in
17:34 88.3 °F 59.9 °F 29.8 in NE 9.2 mph 20.7 mph 38.5% 0 in
17:39 88.3 °F 58.6 °F 29.8 in NE 9.2 mph 21 mph 36.9% 0 in
17:44 88.3 °F 57.9 °F 29.8 in NE 9.2 mph 18 mph 36.1% 0 in
17:49 88.3 °F 58.1 °F 29.8 in NE 9.3 mph 20.4 mph 36.2% 0 in
17:54 88.2 °F 57.9 °F 29.8 in NE 9.7 mph 21 mph 36% 0 in
17:59 88.2 °F 57.2 °F 29.8 in NE 10.1 mph 21 mph 35.2% 0 in
18:04 88.2 °F 57.7 °F 29.8 in NE 10.7 mph 21 mph 35.9% 0 in
18:09 88.5 °F 58.5 °F 29.8 in ENE 10.6 mph 18.5 mph 36.4% 0 in
18:14 88.3 °F 57.7 °F 29.8 in NE 10.2 mph 19 mph 35.4% 0 in
18:19 88.2 °F 58.6 °F 29.8 in NE 10.5 mph 19 mph 37% 0 in
18:24 88 °F 59 °F 29.8 in NE 11.2 mph 18.5 mph 37.8% 0 in
18:29 88 °F 58.6 °F 29.8 in NE 11.2 mph 19 mph 37.5% 0 in
18:34 87.8 °F 59 °F 29.8 in NE 11.2 mph 20.8 mph 37.9% 0 in
18:39 87.4 °F 58.8 °F 29.8 in NE 11.6 mph 21 mph 38.1% 0 in
18:44 87.4 °F 58.6 °F 29.8 in NE 12.5 mph 20 mph 37.9% 0 in
18:49 87.4 °F 59.2 °F 29.8 in NE 11.8 mph 17.3 mph 38.7% 0 in
18:54 87.4 °F 59.4 °F 29.8 in NE 10.2 mph 17 mph 39% 0 in
18:59 87.4 °F 59.9 °F 29.8 in NE 9.5 mph 15 mph 39.6% 0 in
19:04 87.3 °F 60.1 °F 29.8 in NE 8.1 mph 17.3 mph 40.2% 0 in
19:09 86.7 °F 60.3 °F 29.8 in NE 8.8 mph 17.5 mph 41% 0 in
19:14 86.5 °F 59.4 °F 29.8 in NE 10.2 mph 17.3 mph 40% 0 in
19:19 86.5 °F 60.4 °F 29.8 in NE 10.1 mph 17 mph 41.8% 0 in
19:24 86.2 °F 60.8 °F 29.8 in NE 9.7 mph 16.1 mph 42.6% 0 in
19:29 85.8 °F 61 °F 29.8 in ENE 9.2 mph 16 mph 43.3% 0 in
19:34 85.5 °F 60.8 °F 29.8 in ENE 8.1 mph 14 mph 43.4% 0 in
19:39 85.5 °F 60.4 °F 29.8 in ENE 7.7 mph 12 mph 43% 0 in
19:44 85.5 °F 60.4 °F 29.8 in ENE 6.9 mph 9.2 mph 43.2% 0 in
19:49 85.5 °F 61 °F 29.8 in ENE 6 mph 9.2 mph 43.9% 0 in
19:54 85.3 °F 61.3 °F 29.8 in ESE 4 mph 8.1 mph 44.6% 0 in
19:59 85.1 °F 61.2 °F 29.8 in ESE 4.3 mph 11.5 mph 44.7% 0 in
20:04 84.9 °F 61 °F 29.8 in ENE 5.2 mph 12 mph 44.7% 0 in
20:09 85.1 °F 61.2 °F 29.8 in ESE 5 mph 9.2 mph 44.8% 0 in
20:14 84.9 °F 60.3 °F 29.8 in ESE 4.7 mph 12.5 mph 43.6% 0 in
20:19 84.7 °F 59.9 °F 29.9 in ESE 5.2 mph 13 mph 43.1% 0 in
20:24 84.6 °F 61 °F 29.9 in ESE 6.4 mph 13.7 mph 45.2% 0 in
20:29 84.2 °F 61.7 °F 29.9 in ESE 6.6 mph 14 mph 46.9% 0 in
20:34 84 °F 61.5 °F 29.9 in ESE 6.9 mph 10 mph 46.9% 0 in
20:39 84 °F 62.2 °F 29.9 in ESE 6.6 mph 11.5 mph 48% 0 in
20:44 83.8 °F 62.8 °F 29.9 in ESE 5.9 mph 12 mph 49.3% 0 in
20:49 83.7 °F 63.3 °F 29.9 in ESE 5.9 mph 10 mph 50.7% 0 in
20:54 83.3 °F 63.7 °F 29.9 in SE 5.9 mph 11.5 mph 51.9% 0 in
20:59 82.9 °F 63.9 °F 29.9 in SE 5.9 mph 12 mph 52.9% 0 in
21:04 82.8 °F 63.9 °F 29.9 in SE 5.9 mph 10.4 mph 53% 0 in
21:09 82.6 °F 63.9 °F 29.9 in ESE 5.7 mph 10 mph 53.6% 0 in
21:14 82.4 °F 64 °F 29.9 in Este 5.4 mph 9 mph 54% 0 in
21:19 82 °F 64 °F 29.9 in NE 5.2 mph 8 mph 54.5% 0 in
21:24 81.9 °F 64.4 °F 29.9 in NE 4.7 mph 7.4 mph 55.5% 0 in
21:29 81.3 °F 64.4 °F 29.9 in NE 4.7 mph 9.2 mph 56.3% 0 in
21:34 81.1 °F 64.6 °F 29.9 in ENE 4.7 mph 9 mph 57% 0 in
21:39 81 °F 64.4 °F 29.9 in ENE 4.5 mph 7 mph 57.3% 0 in
21:44 81 °F 64.8 °F 29.9 in ENE 4 mph 6 mph 58% 0 in
21:49 80.8 °F 64.6 °F 29.9 in ENE 3.5 mph 6 mph 58% 0 in
21:54 80.6 °F 64.9 °F 29.9 in Este 2.4 mph 6 mph 59% 0 in
21:59 80.4 °F 64.8 °F 29.9 in ESE 2.4 mph 6 mph 59% 0 in
22:04 80.4 °F 64.8 °F 29.9 in ENE 2.4 mph 6.2 mph 59% 0 in
22:09 80.2 °F 64.8 °F 29.9 in NE 2.4 mph 6 mph 59.3% 0 in
22:14 80.2 °F 65.1 °F 29.9 in NE 2.4 mph 6 mph 60.1% 0 in
22:19 80.1 °F 65.5 °F 29.9 in ESE 2.4 mph 6 mph 61% 0 in
22:24 80.1 °F 65.5 °F 29.9 in NE 2.4 mph 6 mph 61.2% 0 in
22:29 80.1 °F 65.8 °F 29.9 in NE 2.5 mph 6.4 mph 62% 0 in
22:34 79.9 °F 65.7 °F 29.9 in NE 2.9 mph 7 mph 61.9% 0 in
22:39 79.5 °F 65.3 °F 29.9 in NNE 3.4 mph 7 mph 62% 0 in
22:44 79.3 °F 65.3 °F 29.9 in NNE 4.3 mph 7.4 mph 62.3% 0 in
22:49 79.2 °F 65.5 °F 29.9 in NNE 4.6 mph 9.7 mph 63.1% 0 in
22:54 79 °F 65.8 °F 29.9 in NE 5.2 mph 10.4 mph 64.3% 0 in
22:59 78.6 °F 65.8 °F 29.9 in NE 5.3 mph 10 mph 65% 0 in
23:04 78.4 °F 66 °F 29.9 in NE 5.4 mph 9.2 mph 65.6% 0 in
23:09 78.3 °F 66.2 °F 29.9 in NE 5.4 mph 9.2 mph 66.4% 0 in
23:14 78.3 °F 66.4 °F 29.9 in NE 5.4 mph 9 mph 67% 0 in
23:19 78.3 °F 66.7 °F 29.9 in NE 5.3 mph 8.5 mph 67.8% 0 in
23:24 78.1 °F 66.7 °F 29.9 in NE 5.2 mph 9 mph 68.3% 0 in
23:29 77.9 °F 66.9 °F 29.9 in NE 4.9 mph 8.1 mph 69% 0 in
23:34 77.5 °F 66.9 °F 29.9 in NE 4.3 mph 9.2 mph 69.7% 0 in
23:39 77.4 °F 66.9 °F 29.9 in NE 4.8 mph 9.2 mph 70.1% 0 in
23:44 77.2 °F 66.9 °F 29.9 in NE 5.9 mph 11.5 mph 71% 0 in
23:49 76.8 °F 66.9 °F 29.9 in NE 6.3 mph 12 mph 71.6% 0 in
23:54 76.6 °F 66.9 °F 29.9 in NE 7.4 mph 11.5 mph 72% 0 in
23:59 76.6 °F 66.9 °F 29.9 in NE 7.4 mph 12 mph 72% 0 in
Murcia-Puente Tocinos, España
Compliments of Weather Underground - 3 mb

La estación de MeteoMurcia.com, publica sus datos en los siguientes proyectos:

Weather Underground PWS IMURCIAP2 Meteoclimatic www.awekas.at

W3Counter
Web Analytics